createdAt,value
2018-08-25T00:00:11.805Z,3.60
2018-08-25T00:02:42.955Z,4.00
2018-08-25T00:05:12.254Z,3.77
2018-08-25T00:07:41.303Z,3.20
2018-08-25T00:10:12.509Z,4.97
2018-08-25T00:12:42.742Z,5.50
2018-08-25T00:15:11.363Z,4.90
2018-08-25T00:17:40.021Z,6.33
2018-08-25T00:20:08.627Z,5.63
2018-08-25T00:22:37.376Z,4.13
2018-08-25T00:25:08.284Z,2.80
2018-08-25T00:27:38.241Z,6.07
2018-08-25T00:30:12.368Z,5.60
2018-08-25T00:32:42.308Z,4.47
2018-08-25T00:35:13.468Z,4.77
2018-08-25T00:37:45.543Z,4.13
2018-08-25T00:40:18.286Z,4.13
2018-08-25T00:42:49.603Z,4.77
2018-08-25T00:45:21.381Z,3.80
2018-08-25T00:47:51.768Z,4.97
2018-08-25T00:50:22.621Z,4.87
2018-08-25T00:52:53.722Z,3.70
2018-08-25T00:55:24.278Z,4.43
2018-08-25T00:57:55.749Z,4.97
2018-08-25T01:00:26.799Z,5.00
2018-08-25T01:02:58.564Z,4.33
2018-08-25T01:05:30.047Z,2.50
2018-08-25T01:07:58.644Z,4.37
2018-08-25T01:10:27.404Z,4.63
2018-08-25T01:12:56.000Z,4.90
2018-08-25T01:15:24.562Z,4.03
2018-08-25T01:17:53.899Z,6.43
2018-08-25T01:20:22.508Z,4.63
2018-08-25T01:22:51.500Z,3.73
2018-08-25T01:25:20.092Z,3.13
2018-08-25T01:27:48.732Z,4.37
2018-08-25T01:30:17.374Z,4.17
2018-08-25T01:32:46.058Z,6.13
2018-08-25T01:35:14.613Z,7.07
2018-08-25T01:37:43.272Z,2.47
2018-08-25T01:40:12.585Z,4.73
2018-08-25T01:42:41.883Z,3.83
2018-08-25T01:45:10.473Z,5.73
2018-08-25T01:47:40.008Z,4.57
2018-08-25T01:50:08.805Z,2.93
2018-08-25T01:52:37.754Z,2.90
2018-08-25T01:55:06.699Z,4.93
2018-08-25T01:57:35.673Z,2.93
2018-08-25T02:00:04.494Z,3.23
2018-08-25T02:02:33.723Z,5.53
2018-08-25T02:05:02.569Z,4.57
2018-08-25T02:07:31.275Z,2.87
2018-08-25T02:09:59.818Z,3.07
2018-08-25T02:12:28.343Z,4.07
2018-08-25T02:14:56.913Z,4.23
2018-08-25T02:17:25.442Z,3.13
2018-08-25T02:19:55.329Z,4.40
2018-08-25T02:22:24.602Z,3.50
2018-08-25T02:24:54.124Z,3.33
2018-08-25T02:27:22.855Z,3.97
2018-08-25T02:29:51.409Z,2.97
2018-08-25T02:32:20.258Z,3.63
2018-08-25T02:34:49.019Z,3.97
2018-08-25T02:37:17.903Z,3.90
2018-08-25T02:39:46.471Z,4.07
2018-08-25T02:42:15.003Z,4.97
2018-08-25T02:44:43.683Z,5.20
2018-08-25T02:47:12.422Z,4.83
2018-08-25T02:49:40.995Z,4.00
2018-08-25T02:52:09.542Z,4.33
2018-08-25T02:54:38.231Z,3.40
2018-08-25T02:57:07.285Z,3.47
2018-08-25T02:59:36.135Z,3.57
2018-08-25T03:02:04.899Z,3.47
2018-08-25T03:04:33.544Z,2.43
2018-08-25T03:07:02.227Z,2.70
2018-08-25T03:09:30.710Z,4.20
2018-08-25T03:11:59.201Z,2.83
2018-08-25T03:14:27.804Z,3.47
2018-08-25T03:16:56.678Z,3.00
2018-08-25T03:19:25.268Z,3.13
2018-08-25T03:21:53.754Z,2.07
2018-08-25T03:24:22.326Z,2.20
2018-08-25T03:26:51.343Z,2.67
2018-08-25T03:29:19.961Z,4.87
2018-08-25T03:31:48.527Z,1.23
2018-08-25T03:34:17.049Z,4.23
2018-08-25T03:36:45.855Z,2.80
2018-08-25T03:39:14.494Z,2.13
2018-08-25T03:41:43.342Z,3.73
2018-08-25T03:44:12.128Z,1.77
2018-08-25T03:46:41.044Z,2.40
2018-08-25T03:49:10.017Z,3.40
2018-08-25T03:51:39.325Z,2.87
2018-08-25T03:54:07.949Z,5.07
2018-08-25T03:56:36.820Z,3.27
2018-08-25T03:59:05.473Z,5.37
2018-08-25T04:01:34.223Z,3.27
2018-08-25T04:04:02.859Z,3.13
2018-08-25T04:06:31.535Z,3.40
2018-08-25T04:09:00.140Z,6.00
2018-08-25T04:11:28.672Z,4.37
2018-08-25T04:13:57.511Z,3.23
2018-08-25T04:16:26.198Z,3.00
2018-08-25T04:18:54.834Z,3.47
2018-08-25T04:21:23.372Z,3.50
2018-08-25T04:23:52.065Z,4.83
2018-08-25T04:26:20.632Z,3.70
2018-08-25T04:28:49.618Z,2.47
2018-08-25T04:31:18.139Z,5.27
2018-08-25T04:33:46.661Z,4.17
2018-08-25T04:36:18.048Z,2.97
2018-08-25T04:38:46.584Z,4.47
2018-08-25T04:41:15.345Z,1.60
2018-08-25T04:43:44.003Z,3.20
2018-08-25T04:46:12.542Z,3.90
2018-08-25T04:48:41.063Z,2.70
2018-08-25T04:51:09.530Z,3.70
2018-08-25T04:53:38.892Z,5.30
2018-08-25T04:56:07.705Z,3.57
2018-08-25T04:58:36.260Z,2.70
2018-08-25T05:01:04.842Z,2.43
2018-08-25T05:03:33.470Z,2.83
2018-08-25T05:06:02.416Z,6.47
2018-08-25T05:08:31.532Z,3.43
2018-08-25T05:11:00.060Z,3.67
2018-08-25T05:13:28.556Z,2.57
2018-08-25T05:15:57.155Z,3.27
2018-08-25T05:18:25.700Z,3.83
2018-08-25T05:20:54.577Z,1.37
2018-08-25T05:23:23.214Z,4.80
2018-08-25T05:25:51.795Z,3.67
2018-08-25T05:28:20.376Z,4.67
2018-08-25T05:30:49.086Z,4.67
2018-08-25T05:33:17.731Z,3.17
2018-08-25T05:35:46.310Z,3.03
2018-08-25T05:38:15.340Z,2.23
2018-08-25T05:40:43.879Z,2.47
2018-08-25T05:43:12.482Z,3.27
2018-08-25T05:45:41.879Z,2.77
2018-08-25T05:48:11.004Z,4.73
2018-08-25T05:50:39.831Z,4.37
2018-08-25T05:53:08.417Z,2.47
2018-08-25T05:55:37.171Z,4.60
2018-08-25T05:58:05.781Z,3.07
2018-08-25T06:00:34.393Z,2.70
2018-08-25T06:03:03.065Z,4.37
2018-08-25T06:05:31.585Z,3.40
2018-08-25T06:08:00.118Z,3.43
2018-08-25T06:10:28.613Z,2.10
2018-08-25T06:12:57.345Z,4.77
2018-08-25T06:15:25.907Z,5.10
2018-08-25T06:17:55.052Z,4.57
2018-08-25T06:20:23.874Z,3.70
2018-08-25T06:22:52.476Z,4.37
2018-08-25T06:25:20.969Z,2.27
2018-08-25T06:27:49.500Z,2.10
2018-08-25T06:30:18.053Z,5.77
2018-08-25T06:32:46.802Z,7.20
2018-08-25T06:35:15.312Z,5.27
2018-08-25T06:37:43.879Z,3.77
2018-08-25T06:40:12.367Z,4.23
2018-08-25T06:42:41.409Z,5.60
2018-08-25T06:45:09.930Z,3.93
2018-08-25T06:47:38.952Z,3.07
2018-08-25T06:50:07.535Z,3.60
2018-08-25T06:52:36.067Z,3.93
2018-08-25T06:55:04.591Z,3.87
2018-08-25T06:57:34.380Z,3.83
2018-08-25T07:00:04.133Z,2.97
2018-08-25T07:02:32.650Z,6.13
2018-08-25T07:05:01.164Z,3.10
2018-08-25T07:07:29.722Z,4.43
2018-08-25T07:09:58.277Z,2.97
2018-08-25T07:12:27.185Z,2.70
2018-08-25T07:14:55.788Z,2.90
2018-08-25T07:17:24.295Z,4.33
2018-08-25T07:19:53.207Z,3.70
2018-08-25T07:22:21.769Z,2.33
2018-08-25T07:24:50.380Z,2.87
2018-08-25T07:27:18.879Z,2.40
2018-08-25T07:29:47.380Z,1.60
2018-08-25T07:32:16.013Z,2.30
2018-08-25T07:34:45.612Z,1.43
2018-08-25T07:37:14.190Z,3.03
2018-08-25T07:39:42.736Z,1.70
2018-08-25T07:42:11.243Z,2.90
2018-08-25T07:44:39.927Z,1.97
2018-08-25T07:47:08.447Z,1.43
2018-08-25T07:49:37.845Z,0.90
2018-08-25T07:52:06.674Z,1.23
2018-08-25T07:54:35.357Z,0.80
2018-08-25T07:57:03.929Z,1.13
2018-08-25T07:59:32.435Z,1.33
2018-08-25T08:02:01.067Z,0.97
2018-08-25T08:04:29.645Z,1.30
2018-08-25T08:06:58.349Z,1.23
2018-08-25T08:09:26.895Z,1.70
2018-08-25T08:11:55.556Z,1.50
2018-08-25T08:14:24.123Z,2.17
2018-08-25T08:16:52.624Z,1.20
2018-08-25T08:19:21.204Z,1.63
2018-08-25T08:21:49.941Z,1.00
2018-08-25T08:24:18.483Z,3.53
2018-08-25T08:26:46.973Z,2.03
2018-08-25T08:29:15.573Z,0.70
2018-08-25T08:31:44.771Z,1.20
2018-08-25T08:34:13.323Z,2.57
2018-08-25T08:36:41.890Z,0.73
2018-08-25T08:39:11.253Z,2.17
2018-08-25T08:41:40.455Z,1.33
2018-08-25T08:44:09.174Z,1.00
2018-08-25T08:46:38.279Z,1.80
2018-08-25T08:49:08.052Z,1.50
2018-08-25T08:51:37.728Z,2.40
2018-08-25T08:54:06.379Z,1.83
2018-08-25T08:56:34.914Z,2.23
2018-08-25T08:59:03.840Z,2.57
2018-08-25T09:01:32.925Z,2.30
2018-08-25T09:04:02.123Z,2.40
2018-08-25T09:06:30.608Z,3.37
2018-08-25T09:08:59.206Z,3.03
2018-08-25T09:11:27.848Z,3.93
2018-08-25T09:13:56.306Z,4.00
2018-08-25T09:16:24.797Z,4.20
2018-08-25T09:18:53.285Z,4.23
2018-08-25T09:21:22.056Z,4.50
2018-08-25T09:23:50.792Z,4.30
2018-08-25T09:26:19.305Z,3.83
2018-08-25T09:28:48.865Z,4.13
2018-08-25T09:31:18.420Z,3.87
2018-08-25T09:33:48.434Z,4.20
2018-08-25T09:36:17.354Z,3.87
2018-08-25T09:38:45.922Z,3.97
2018-08-25T09:41:14.537Z,4.10
2018-08-25T09:43:43.112Z,4.03
2018-08-25T09:46:11.984Z,4.20
2018-08-25T09:48:40.731Z,3.93
2018-08-25T09:51:09.778Z,4.37
2018-08-25T09:53:38.896Z,4.27
2018-08-25T09:56:07.521Z,4.33
2018-08-25T09:58:36.665Z,3.70
2018-08-25T10:01:14.475Z,4.67
2018-08-25T10:03:43.047Z,4.60
2018-08-25T10:06:11.695Z,4.73
2018-08-25T10:08:40.914Z,4.47
2018-08-25T10:11:09.870Z,5.03
2018-08-25T10:13:39.287Z,4.63
2018-08-25T10:16:07.838Z,4.70
2018-08-25T10:18:36.469Z,4.87
2018-08-25T10:21:06.066Z,5.03
2018-08-25T10:23:34.726Z,4.60
2018-08-25T10:26:03.439Z,4.93
2018-08-25T10:28:32.186Z,4.90
2018-08-25T10:31:01.301Z,4.27
2018-08-25T10:33:29.868Z,4.47
2018-08-25T10:35:58.436Z,4.27
2018-08-25T10:38:26.984Z,3.70
2018-08-25T10:40:55.490Z,3.90
2018-08-25T10:43:24.041Z,3.90
2018-08-25T10:45:53.193Z,4.50
2018-08-25T10:48:22.557Z,4.63
2018-08-25T10:50:51.346Z,4.13
2018-08-25T10:53:19.970Z,4.00
2018-08-25T10:55:49.219Z,4.20
2018-08-25T10:58:17.752Z,4.03
2018-08-25T11:00:46.714Z,4.17
2018-08-25T11:03:15.279Z,4.40
2018-08-25T11:05:44.326Z,4.30
2018-08-25T11:08:13.962Z,4.27
2018-08-25T11:10:44.358Z,4.60
2018-08-25T11:13:13.881Z,4.83
2018-08-25T11:15:42.823Z,4.30
2018-08-25T11:18:11.628Z,4.10
2018-08-25T11:20:41.507Z,3.90
2018-08-25T11:23:11.255Z,3.63
2018-08-25T11:25:39.932Z,3.90
2018-08-25T11:28:09.553Z,3.63
2018-08-25T11:30:44.679Z,3.60
2018-08-25T11:33:14.245Z,3.97
2018-08-25T11:35:43.268Z,3.27
2018-08-25T11:38:11.950Z,3.60
2018-08-25T11:40:41.103Z,4.07
2018-08-25T11:43:10.178Z,3.90
2018-08-25T11:45:39.534Z,3.87
2018-08-25T11:48:08.132Z,3.77
2018-08-25T11:50:36.782Z,4.03
2018-08-25T11:53:06.545Z,4.07
2018-08-25T11:55:35.223Z,3.47
2018-08-25T11:58:03.856Z,3.40
2018-08-25T12:00:32.626Z,3.50
2018-08-25T12:03:03.833Z,3.60
2018-08-25T12:05:32.008Z,3.40
2018-08-25T12:08:00.598Z,3.73
2018-08-25T12:10:29.143Z,3.00
2018-08-25T12:12:59.660Z,3.37
2018-08-25T12:15:29.901Z,2.93
2018-08-25T12:18:01.345Z,2.53
2018-08-25T12:20:32.176Z,2.60
2018-08-25T12:23:00.864Z,2.50
2018-08-25T12:25:29.590Z,2.53
2018-08-25T12:28:00.262Z,2.30
2018-08-25T12:30:33.439Z,2.30
2018-08-25T12:33:03.807Z,2.00
2018-08-25T12:35:34.879Z,3.10
2018-08-25T12:38:07.427Z,2.30
2018-08-25T12:40:39.337Z,2.40
2018-08-25T12:43:08.066Z,1.87
2018-08-25T12:45:37.250Z,1.97
2018-08-25T12:48:05.971Z,1.87
2018-08-25T12:50:35.276Z,1.60
2018-08-25T12:53:04.494Z,1.47
2018-08-25T12:55:33.986Z,1.33
2018-08-25T12:58:02.857Z,2.07
2018-08-25T13:00:31.798Z,1.60
2018-08-25T13:03:00.368Z,2.13
2018-08-25T13:05:29.021Z,2.50
2018-08-25T13:07:57.496Z,2.03
2018-08-25T13:10:26.841Z,2.43
2018-08-25T13:12:55.381Z,2.13
2018-08-25T13:15:24.633Z,2.57
2018-08-25T13:17:53.755Z,2.33
2018-08-25T13:20:23.096Z,2.40
2018-08-25T13:22:51.571Z,2.00
2018-08-25T13:25:20.208Z,2.53
2018-08-25T13:27:49.705Z,2.00
2018-08-25T13:30:18.540Z,1.67
2018-08-25T13:32:47.048Z,1.87
2018-08-25T13:35:15.613Z,2.60
2018-08-25T13:37:44.471Z,2.23
2018-08-25T13:40:13.137Z,3.17
2018-08-25T13:42:41.730Z,2.07
2018-08-25T13:45:10.616Z,1.53
2018-08-25T13:47:39.440Z,1.70
2018-08-25T13:50:09.272Z,1.70
2018-08-25T13:52:38.155Z,1.37
2018-08-25T13:55:06.815Z,1.90
2018-08-25T13:57:35.492Z,1.77
2018-08-25T14:00:04.736Z,2.17
2018-08-25T14:02:33.517Z,2.00
2018-08-25T14:05:02.134Z,1.37
2018-08-25T14:07:30.730Z,1.50
2018-08-25T14:09:59.485Z,2.20
2018-08-25T14:12:28.117Z,1.77
2018-08-25T14:14:56.643Z,1.90
2018-08-25T14:17:25.345Z,2.03
2018-08-25T14:19:54.081Z,2.77
2018-08-25T14:22:22.832Z,1.30
2018-08-25T14:24:51.803Z,1.57
2018-08-25T14:27:20.327Z,2.83
2018-08-25T14:29:48.935Z,1.30
2018-08-25T14:32:17.796Z,2.57
2018-08-25T14:34:48.972Z,1.60
2018-08-25T14:37:17.581Z,2.33
2018-08-25T14:39:59.724Z,2.10
2018-08-25T14:42:32.232Z,1.30
2018-08-25T14:45:00.876Z,2.83
2018-08-25T14:47:29.619Z,2.00
2018-08-25T14:49:58.138Z,1.77
2018-08-25T14:52:26.723Z,2.97
2018-08-25T14:54:55.585Z,1.50
2018-08-25T14:57:24.118Z,2.27
2018-08-25T14:59:53.024Z,1.73
2018-08-25T15:02:21.574Z,1.00
2018-08-25T15:04:50.233Z,1.03
2018-08-25T15:07:18.761Z,3.33
2018-08-25T15:09:47.280Z,1.70
2018-08-25T15:12:15.870Z,1.10
2018-08-25T15:14:44.519Z,1.50
2018-08-25T15:17:15.201Z,1.70
2018-08-25T15:19:46.018Z,1.77
2018-08-25T15:22:14.901Z,2.23
2018-08-25T15:24:45.037Z,1.23
2018-08-25T15:27:13.779Z,2.50
2018-08-25T15:29:43.807Z,1.53
2018-08-25T15:32:12.558Z,1.90
2018-08-25T15:34:41.097Z,1.33
2018-08-25T15:37:09.903Z,1.40
2018-08-25T15:39:39.570Z,2.67
2018-08-25T15:42:08.107Z,1.60
2018-08-25T15:44:37.288Z,2.20
2018-08-25T15:47:05.926Z,1.63
2018-08-25T15:49:34.865Z,1.20
2018-08-25T15:52:03.548Z,2.63
2018-08-25T15:54:32.212Z,1.70
2018-08-25T15:57:00.772Z,2.13
2018-08-25T15:59:29.429Z,2.00
2018-08-25T16:01:57.981Z,1.83
2018-08-25T16:04:28.027Z,1.77
2018-08-25T16:07:01.295Z,1.90
2018-08-25T16:09:29.896Z,2.00
2018-08-25T16:12:06.521Z,1.80
2018-08-25T16:14:34.927Z,1.60
2018-08-25T16:17:03.565Z,1.90
2018-08-25T16:19:36.513Z,1.20
2018-08-25T16:22:06.144Z,1.60
2018-08-25T16:24:39.555Z,1.93
2018-08-25T16:27:13.887Z,1.37
2018-08-25T16:29:44.466Z,2.17
2018-08-25T16:32:13.143Z,1.87
2018-08-25T16:34:41.796Z,1.93
2018-08-25T16:37:10.564Z,1.50
2018-08-25T16:39:39.404Z,1.27
2018-08-25T16:42:08.679Z,1.87
2018-08-25T16:44:38.251Z,1.40
2018-08-25T16:47:08.524Z,1.43
2018-08-25T16:49:37.687Z,2.07
2018-08-25T16:52:06.879Z,1.60
2018-08-25T16:54:35.923Z,2.83
2018-08-25T16:57:04.611Z,1.43
2018-08-25T16:59:33.479Z,0.80
2018-08-25T17:02:03.591Z,0.80
2018-08-25T17:04:32.467Z,0.87
2018-08-25T17:07:01.192Z,0.80
2018-08-25T17:09:32.389Z,1.67
2018-08-25T17:12:03.941Z,1.20
2018-08-25T17:14:33.352Z,1.27
2018-08-25T17:17:03.297Z,1.30
2018-08-25T17:19:32.182Z,1.13
2018-08-25T17:22:02.804Z,1.00
2018-08-25T17:24:33.401Z,0.87
2018-08-25T17:27:02.575Z,0.87
2018-08-25T17:29:35.966Z,1.37
2018-08-25T17:32:06.416Z,1.33
2018-08-25T17:34:35.714Z,1.47
2018-08-25T17:37:04.475Z,2.47
2018-08-25T17:39:33.536Z,1.63
2018-08-25T17:42:02.127Z,1.97
2018-08-25T17:44:31.713Z,1.30
2018-08-25T17:47:00.288Z,1.40
2018-08-25T17:49:28.854Z,1.30
2018-08-25T17:51:57.552Z,1.67
2018-08-25T17:54:26.106Z,1.30
2018-08-25T17:56:54.749Z,1.40
2018-08-25T17:59:23.450Z,1.47
2018-08-25T18:01:52.059Z,1.90
2018-08-25T18:04:21.286Z,1.40
2018-08-25T18:06:49.938Z,1.80
2018-08-25T18:09:18.799Z,2.20
2018-08-25T18:11:47.396Z,2.27
2018-08-25T18:14:15.990Z,1.50
2018-08-25T18:16:44.539Z,1.80
2018-08-25T18:19:13.156Z,2.33
2018-08-25T18:21:41.995Z,1.30
2018-08-25T18:24:10.551Z,1.40
2018-08-25T18:26:39.440Z,1.50
2018-08-25T18:29:08.475Z,1.40
2018-08-25T18:31:37.290Z,1.90
2018-08-25T18:34:06.522Z,1.97
2018-08-25T18:36:35.534Z,2.30
2018-08-25T18:39:06.574Z,2.50
2018-08-25T18:41:35.197Z,2.13
2018-08-25T18:44:03.948Z,4.03
2018-08-25T18:46:32.538Z,2.63
2018-08-25T18:49:01.327Z,3.37
2018-08-25T18:51:30.461Z,2.37
2018-08-25T18:53:59.544Z,2.70
2018-08-25T18:56:28.235Z,2.50
2018-08-25T18:58:56.937Z,3.13
2018-08-25T19:01:25.672Z,2.20
2018-08-25T19:03:54.272Z,1.73
2018-08-25T19:06:23.248Z,1.37
2018-08-25T19:08:51.842Z,1.10
2018-08-25T19:11:20.807Z,1.70
2018-08-25T19:13:49.314Z,1.10
2018-08-25T19:16:17.826Z,0.77
2018-08-25T19:18:46.528Z,0.63
2018-08-25T19:21:15.624Z,0.57
2018-08-25T19:23:44.893Z,1.73
2018-08-25T19:26:13.731Z,0.70
2018-08-25T19:28:42.347Z,1.00
2018-08-25T19:31:11.346Z,2.30
2018-08-25T19:33:40.427Z,1.53
2018-08-25T19:36:09.153Z,1.63
2018-08-25T19:38:38.410Z,0.67
2018-08-25T19:41:07.595Z,0.87
2018-08-25T19:43:36.212Z,1.90
2018-08-25T19:46:05.312Z,1.27
2018-08-25T19:48:33.973Z,2.20
2018-08-25T19:51:02.716Z,0.97
2018-08-25T19:53:31.900Z,1.03
2018-08-25T19:56:00.668Z,2.10
2018-08-25T19:58:29.283Z,0.80
2018-08-25T20:00:58.006Z,0.90
2018-08-25T20:03:26.972Z,1.57
2018-08-25T20:05:55.962Z,1.10
2018-08-25T20:08:25.470Z,1.53
2018-08-25T20:10:54.153Z,0.57
2018-08-25T20:13:22.762Z,0.90
2018-08-25T20:15:52.311Z,0.60
2018-08-25T20:18:21.339Z,0.40
2018-08-25T20:20:50.593Z,0.43
2018-08-25T20:23:19.506Z,1.00
2018-08-25T20:25:48.279Z,0.80
2018-08-25T20:28:16.909Z,0.90
2018-08-25T20:30:45.858Z,0.70
2018-08-25T20:33:14.349Z,1.37
2018-08-25T20:35:43.316Z,2.30
2018-08-25T20:38:11.929Z,0.80
2018-08-25T20:40:42.519Z,1.37
2018-08-25T20:43:12.134Z,1.27
2018-08-25T20:45:42.289Z,0.90
2018-08-25T20:48:12.065Z,1.80
2018-08-25T20:50:42.322Z,1.27
2018-08-25T20:53:12.551Z,2.13
2018-08-25T20:55:43.414Z,1.50
2018-08-25T20:58:13.644Z,1.03
2018-08-25T21:00:42.479Z,1.20
2018-08-25T21:03:13.664Z,1.00
2018-08-25T21:05:42.766Z,0.70
2018-08-25T21:08:11.278Z,1.00
2018-08-25T21:10:40.867Z,1.17
2018-08-25T21:13:10.065Z,1.43
2018-08-25T21:15:39.150Z,1.00
2018-08-25T21:18:08.059Z,0.87
2018-08-25T21:20:36.671Z,2.50
2018-08-25T21:23:05.298Z,0.80
2018-08-25T21:25:34.263Z,1.00
2018-08-25T21:28:03.256Z,2.43
2018-08-25T21:30:32.697Z,1.97
2018-08-25T21:33:01.361Z,1.60
2018-08-25T21:35:30.551Z,2.10
2018-08-25T21:37:59.181Z,1.50
2018-08-25T21:40:27.869Z,1.43
2018-08-25T21:42:58.674Z,1.80
2018-08-25T21:45:28.014Z,1.23
2018-08-25T21:47:56.667Z,1.70
2018-08-25T21:50:25.677Z,1.60
2018-08-25T21:52:54.439Z,2.37
2018-08-25T21:55:24.172Z,2.13
2018-08-25T21:57:53.172Z,1.40
2018-08-25T22:00:22.698Z,1.53
2018-08-25T22:02:51.351Z,2.07
2018-08-25T22:05:20.006Z,1.60
2018-08-25T22:07:48.609Z,1.33
2018-08-25T22:10:17.483Z,1.90
2018-08-25T22:12:46.273Z,2.60
2018-08-25T22:15:15.082Z,1.97
2018-08-25T22:17:43.822Z,1.47
2018-08-25T22:20:12.787Z,2.17
2018-08-25T22:22:41.719Z,1.33
2018-08-25T22:25:10.390Z,2.63
2018-08-25T22:27:39.271Z,2.00
2018-08-25T22:30:08.014Z,1.43
2018-08-25T22:32:36.627Z,1.83
2018-08-25T22:35:05.251Z,2.53
2018-08-25T22:37:34.124Z,2.37
2018-08-25T22:40:02.882Z,2.23
2018-08-25T22:42:32.254Z,2.37
2018-08-25T22:45:00.921Z,1.97
2018-08-25T22:47:29.543Z,5.03
2018-08-25T22:49:58.209Z,1.87
2018-08-25T22:52:32.162Z,1.23
2018-08-25T22:55:00.945Z,1.63
2018-08-25T22:57:29.867Z,1.30
2018-08-25T22:59:58.658Z,1.53
2018-08-25T23:02:32.096Z,1.37
2018-08-25T23:05:03.227Z,1.37
2018-08-25T23:07:32.723Z,1.60
2018-08-25T23:10:01.373Z,1.67
2018-08-25T23:12:30.428Z,2.40
2018-08-25T23:14:59.255Z,2.13
2018-08-25T23:17:28.573Z,2.80
2018-08-25T23:19:57.392Z,4.00
2018-08-25T23:22:26.618Z,2.40
2018-08-25T23:24:55.282Z,2.10
2018-08-25T23:27:24.518Z,2.30
2018-08-25T23:29:53.044Z,1.90
2018-08-25T23:32:21.644Z,3.40
2018-08-25T23:34:50.609Z,4.70
2018-08-25T23:37:19.195Z,2.87
2018-08-25T23:39:47.765Z,2.70
2018-08-25T23:42:16.553Z,5.03
2018-08-25T23:44:45.681Z,2.40
2018-08-25T23:47:14.520Z,2.40
2018-08-25T23:49:43.007Z,2.83
2018-08-25T23:52:11.851Z,3.00
2018-08-25T23:54:41.100Z,3.03
2018-08-25T23:57:09.658Z,2.23
2018-08-25T23:59:38.572Z,2.30
